createdAt,value
2018-09-23T00:00:44.526Z,5.03
2018-09-23T00:03:13.130Z,6.67
2018-09-23T00:05:41.766Z,7.07
2018-09-23T00:08:10.326Z,8.53
2018-09-23T00:10:39.002Z,10.80
2018-09-23T00:13:07.781Z,6.00
2018-09-23T00:15:36.414Z,8.23
2018-09-23T00:18:04.958Z,10.33
2018-09-23T00:20:33.705Z,6.33
2018-09-23T00:23:03.778Z,10.23
2018-09-23T00:25:32.672Z,6.63
2018-09-23T00:28:01.266Z,7.57
2018-09-23T00:30:29.826Z,8.63
2018-09-23T00:32:58.362Z,6.73
2018-09-23T00:35:26.886Z,4.47
2018-09-23T00:37:55.684Z,16.50
2018-09-23T00:40:24.214Z,4.83
2018-09-23T00:42:52.982Z,8.23
2018-09-23T00:45:21.466Z,4.93
2018-09-23T00:47:50.010Z,9.93
2018-09-23T00:50:18.639Z,5.80
2018-09-23T00:52:47.162Z,9.03
2018-09-23T00:55:15.804Z,6.37
2018-09-23T00:57:44.286Z,9.23
2018-09-23T01:00:12.918Z,8.47
2018-09-23T01:02:41.382Z,6.00
2018-09-23T01:05:10.065Z,9.93
2018-09-23T01:07:39.893Z,4.67
2018-09-23T01:10:08.679Z,4.83
2018-09-23T01:12:37.227Z,6.47
2018-09-23T01:15:06.170Z,3.93
2018-09-23T01:17:34.838Z,1.73
2018-09-23T01:20:03.998Z,8.27
2018-09-23T01:22:32.674Z,7.13
2018-09-23T01:25:01.291Z,4.43
2018-09-23T01:27:29.993Z,7.03
2018-09-23T01:29:58.646Z,7.30
2018-09-23T01:32:27.166Z,5.80
2018-09-23T01:34:55.734Z,8.23
2018-09-23T01:37:24.286Z,10.30
2018-09-23T01:39:52.958Z,8.70
2018-09-23T01:42:21.484Z,8.97
2018-09-23T01:44:50.658Z,7.63
2018-09-23T01:47:19.147Z,4.30
2018-09-23T01:49:47.743Z,5.60
2018-09-23T01:52:16.263Z,7.60
2018-09-23T01:54:44.786Z,12.30
2018-09-23T01:57:13.422Z,16.53
2018-09-23T01:59:42.030Z,9.73
2018-09-23T02:02:10.717Z,8.03
2018-09-23T02:04:39.281Z,7.80
2018-09-23T02:07:07.822Z,11.20
2018-09-23T02:09:36.286Z,7.67
2018-09-23T02:12:04.786Z,7.27
2018-09-23T02:14:33.647Z,6.00
2018-09-23T02:17:02.245Z,15.20
2018-09-23T02:19:30.950Z,7.67
2018-09-23T02:21:59.418Z,5.63
2018-09-23T02:24:28.010Z,5.87
2018-09-23T02:26:56.543Z,8.87
2018-09-23T02:29:25.001Z,11.10
2018-09-23T02:31:53.709Z,8.93
2018-09-23T02:34:22.198Z,6.87
2018-09-23T02:36:50.839Z,9.93
2018-09-23T02:39:19.458Z,10.37
2018-09-23T02:41:48.152Z,8.23
2018-09-23T02:44:16.739Z,9.20
2018-09-23T02:46:45.408Z,5.13
2018-09-23T02:49:13.960Z,7.73
2018-09-23T02:51:42.471Z,8.37
2018-09-23T02:54:11.058Z,5.97
2018-09-23T02:56:39.586Z,7.43
2018-09-23T02:59:09.042Z,10.00
2018-09-23T03:01:37.509Z,9.13
2018-09-23T03:04:06.134Z,10.27
2018-09-23T03:06:34.582Z,5.37
2018-09-23T03:09:03.522Z,8.97
2018-09-23T03:11:32.494Z,8.63
2018-09-23T03:14:00.965Z,14.83
2018-09-23T03:16:29.890Z,9.90
2018-09-23T03:18:58.598Z,10.43
2018-09-23T03:21:27.254Z,6.80
2018-09-23T03:23:55.896Z,6.57
2018-09-23T03:26:24.492Z,11.17
2018-09-23T03:28:52.978Z,6.50
2018-09-23T03:31:21.550Z,10.83
2018-09-23T03:33:50.210Z,7.50
2018-09-23T03:36:18.708Z,9.73
2018-09-23T03:38:47.462Z,5.80
2018-09-23T03:41:16.202Z,13.67
2018-09-23T03:43:44.808Z,4.77
2018-09-23T03:46:13.370Z,11.97
2018-09-23T03:48:42.070Z,11.40
2018-09-23T03:51:10.667Z,6.60
2018-09-23T03:53:39.111Z,11.63
2018-09-23T03:56:07.882Z,5.93
2018-09-23T03:58:36.354Z,5.47
2018-09-23T04:01:04.923Z,10.07
2018-09-23T04:03:33.506Z,4.20
2018-09-23T04:06:02.004Z,6.50
2018-09-23T04:08:30.638Z,6.73
2018-09-23T04:10:59.175Z,4.33
2018-09-23T04:13:27.931Z,5.83
2018-09-23T04:15:56.562Z,8.23
2018-09-23T04:18:26.141Z,8.83
2018-09-23T04:20:54.628Z,7.33
2018-09-23T04:23:23.242Z,3.23
2018-09-23T04:25:51.818Z,4.67
2018-09-23T04:28:20.400Z,1.97
2018-09-23T04:30:49.104Z,5.70
2018-09-23T04:33:17.618Z,9.10
2018-09-23T04:35:46.254Z,7.00
2018-09-23T04:38:14.811Z,4.07
2018-09-23T04:40:43.356Z,3.07
2018-09-23T04:43:11.983Z,12.20
2018-09-23T04:45:40.463Z,9.57
2018-09-23T04:48:09.849Z,3.30
2018-09-23T04:50:38.350Z,2.23
2018-09-23T04:53:07.029Z,7.47
2018-09-23T04:55:35.550Z,5.93
2018-09-23T04:58:04.116Z,1.37
2018-09-23T05:00:32.602Z,6.50
2018-09-23T05:03:01.099Z,9.67
2018-09-23T05:05:30.518Z,3.77
2018-09-23T05:07:59.075Z,2.07
2018-09-23T05:10:27.887Z,4.80
2018-09-23T05:12:56.496Z,4.07
2018-09-23T05:15:25.198Z,5.67
2018-09-23T05:17:53.770Z,11.80
2018-09-23T05:20:22.234Z,6.30
2018-09-23T05:22:50.735Z,3.67
2018-09-23T05:25:19.258Z,9.00
2018-09-23T05:27:48.022Z,4.93
2018-09-23T05:30:16.583Z,8.33
2018-09-23T05:32:45.437Z,7.70
2018-09-23T05:35:14.009Z,2.07
2018-09-23T05:37:42.591Z,6.97
2018-09-23T05:40:11.214Z,9.37
2018-09-23T05:42:39.812Z,4.00
2018-09-23T05:45:09.355Z,3.40
2018-09-23T05:47:37.813Z,8.03
2018-09-23T05:50:06.970Z,6.57
2018-09-23T05:52:35.414Z,5.10
2018-09-23T05:55:04.354Z,6.07
2018-09-23T05:57:32.947Z,2.13
2018-09-23T06:00:01.587Z,5.60
2018-09-23T06:02:30.216Z,4.40
2018-09-23T06:04:58.805Z,9.13
2018-09-23T06:07:27.538Z,3.20
2018-09-23T06:09:56.077Z,6.60
2018-09-23T06:12:24.929Z,4.70
2018-09-23T06:14:53.430Z,4.27
2018-09-23T06:17:21.946Z,3.07
2018-09-23T06:19:50.638Z,1.70
2018-09-23T06:22:19.122Z,5.27
2018-09-23T06:24:47.758Z,2.77
2018-09-23T06:27:16.306Z,2.93
2018-09-23T06:29:44.999Z,4.37
2018-09-23T06:32:13.621Z,3.90
2018-09-23T06:34:42.237Z,7.07
2018-09-23T06:37:10.830Z,3.67
2018-09-23T06:39:39.290Z,2.70
2018-09-23T06:42:08.067Z,5.70
2018-09-23T06:44:36.737Z,3.53
2018-09-23T06:47:05.518Z,3.70
2018-09-23T06:49:34.089Z,3.07
2018-09-23T06:52:02.763Z,3.60
2018-09-23T06:54:31.287Z,6.53
2018-09-23T06:57:00.060Z,6.23
2018-09-23T06:59:28.546Z,5.20
2018-09-23T07:01:56.985Z,2.53
2018-09-23T07:04:25.661Z,4.17
2018-09-23T07:06:54.118Z,3.00
2018-09-23T07:09:22.777Z,8.07
2018-09-23T07:11:51.371Z,6.70
2018-09-23T07:14:20.003Z,3.67
2018-09-23T07:16:48.483Z,3.93
2018-09-23T07:19:17.066Z,8.10
2018-09-23T07:21:45.733Z,4.20
2018-09-23T07:24:14.442Z,2.70
2018-09-23T07:26:43.064Z,4.27
2018-09-23T07:29:11.550Z,9.30
2018-09-23T07:31:40.078Z,2.43
2018-09-23T07:34:08.808Z,6.13
2018-09-23T07:36:37.322Z,5.73
2018-09-23T07:39:07.326Z,3.47
2018-09-23T07:41:36.530Z,5.20
2018-09-23T07:44:05.334Z,2.70
2018-09-23T07:46:33.812Z,4.27
2018-09-23T07:49:02.660Z,3.83
2018-09-23T07:51:31.125Z,4.03
2018-09-23T07:53:59.798Z,6.23
2018-09-23T07:56:28.420Z,3.10
2018-09-23T07:58:56.892Z,1.93
2018-09-23T08:01:25.537Z,4.00
2018-09-23T08:03:54.151Z,4.83
2018-09-23T08:06:22.723Z,3.87
2018-09-23T08:08:51.198Z,5.77
2018-09-23T08:11:19.848Z,3.63
2018-09-23T08:13:48.532Z,6.30
2018-09-23T08:16:16.902Z,2.77
2018-09-23T08:18:45.734Z,6.70
2018-09-23T08:21:14.420Z,1.50
2018-09-23T08:23:43.007Z,4.20
2018-09-23T08:26:11.536Z,5.17
2018-09-23T08:28:40.111Z,8.40
2018-09-23T08:31:08.702Z,2.60
2018-09-23T08:33:37.334Z,2.50
2018-09-23T08:36:06.037Z,2.03
2018-09-23T08:38:34.518Z,3.40
2018-09-23T08:41:03.252Z,3.37
2018-09-23T08:43:31.742Z,1.83
2018-09-23T08:46:00.250Z,0.90
2018-09-23T08:48:28.828Z,3.77
2018-09-23T08:50:57.486Z,3.57
2018-09-23T08:53:26.189Z,3.27
2018-09-23T08:55:54.817Z,4.40
2018-09-23T08:58:23.722Z,1.70
2018-09-23T09:00:52.190Z,2.23
2018-09-23T09:03:20.929Z,4.53
2018-09-23T09:05:49.454Z,2.30
2018-09-23T09:08:18.051Z,2.00
2018-09-23T09:10:46.714Z,2.90
2018-09-23T09:13:15.193Z,3.47
2018-09-23T09:15:43.898Z,3.70
2018-09-23T09:18:12.450Z,2.70
2018-09-23T09:20:41.379Z,0.43
2018-09-23T09:23:10.176Z,2.00
2018-09-23T09:25:38.782Z,3.03
2018-09-23T09:28:07.410Z,2.60
2018-09-23T09:30:35.878Z,6.23
2018-09-23T09:33:04.622Z,4.00
2018-09-23T09:35:33.112Z,2.73
2018-09-23T09:38:01.955Z,1.33
2018-09-23T09:40:30.503Z,1.53
2018-09-23T09:42:59.065Z,3.20
2018-09-23T09:45:27.900Z,2.63
2018-09-23T09:47:56.722Z,8.53
2018-09-23T09:50:25.987Z,2.63
2018-09-23T09:52:54.442Z,5.57
2018-09-23T09:55:23.148Z,6.50
2018-09-23T09:57:51.627Z,3.60
2018-09-23T10:00:25.438Z,1.70
2018-09-23T10:02:54.038Z,2.73
2018-09-23T10:05:22.602Z,3.03
2018-09-23T10:07:51.478Z,2.83
2018-09-23T10:10:20.500Z,2.10
2018-09-23T10:12:49.069Z,2.87
2018-09-23T10:15:17.680Z,3.17
2018-09-23T10:17:46.474Z,3.33
2018-09-23T10:20:15.223Z,2.63
2018-09-23T10:22:43.893Z,1.00
2018-09-23T10:25:12.326Z,2.67
2018-09-23T10:27:40.985Z,0.67
2018-09-23T10:30:10.347Z,3.10
2018-09-23T10:32:39.294Z,3.37
2018-09-23T10:35:08.151Z,5.17
2018-09-23T10:37:37.398Z,2.33
2018-09-23T10:40:06.871Z,3.50
2018-09-23T10:42:35.698Z,4.83
2018-09-23T10:45:04.521Z,1.53
2018-09-23T10:47:33.103Z,2.93
2018-09-23T10:50:01.615Z,4.37
2018-09-23T10:52:30.177Z,1.03
2018-09-23T10:54:58.860Z,2.50
2018-09-23T10:57:27.452Z,3.13
2018-09-23T10:59:56.957Z,2.40
2018-09-23T11:02:25.410Z,1.27
2018-09-23T11:04:54.037Z,2.20
2018-09-23T11:07:22.656Z,4.47
2018-09-23T11:09:51.491Z,3.53
2018-09-23T11:12:19.974Z,4.37
2018-09-23T11:14:48.561Z,4.10
2018-09-23T11:17:17.587Z,5.10
2018-09-23T11:19:46.070Z,3.20
2018-09-23T11:22:15.510Z,2.73
2018-09-23T11:24:44.182Z,2.83
2018-09-23T11:27:12.884Z,1.77
2018-09-23T11:29:41.602Z,4.27
2018-09-23T11:32:10.074Z,3.27
2018-09-23T11:34:38.663Z,1.83
2018-09-23T11:37:07.300Z,2.33
2018-09-23T11:39:36.254Z,0.97
2018-09-23T11:42:04.816Z,0.80
2018-09-23T11:44:33.889Z,1.80
2018-09-23T11:47:02.374Z,2.97
2018-09-23T11:49:30.926Z,3.03
2018-09-23T11:51:59.470Z,2.67
2018-09-23T11:54:28.047Z,1.50
2018-09-23T11:56:56.698Z,1.43
2018-09-23T11:59:25.250Z,5.43
2018-09-23T12:01:55.623Z,3.37
2018-09-23T12:04:24.154Z,0.43
2018-09-23T12:06:52.919Z,2.83
2018-09-23T12:09:21.387Z,4.30
2018-09-23T12:11:49.900Z,2.67
2018-09-23T12:14:18.596Z,4.80
2018-09-23T12:16:47.075Z,1.53
2018-09-23T12:19:15.782Z,0.27
2018-09-23T12:21:44.309Z,0.60
2018-09-23T12:24:13.112Z,0.60
2018-09-23T12:26:41.578Z,3.37
2018-09-23T12:29:10.576Z,2.43
2018-09-23T12:31:39.234Z,0.97
2018-09-23T12:34:07.734Z,4.67
2018-09-23T12:36:36.305Z,4.77
2018-09-23T12:39:07.358Z,3.50
2018-09-23T12:41:35.850Z,5.37
2018-09-23T12:44:04.371Z,4.20
2018-09-23T12:46:33.422Z,2.00
2018-09-23T12:49:02.180Z,1.63
2018-09-23T12:51:30.938Z,1.87
2018-09-23T12:53:59.586Z,0.93
2018-09-23T12:56:28.098Z,5.10
2018-09-23T12:58:57.310Z,0.60
2018-09-23T13:01:25.814Z,0.77
2018-09-23T13:03:54.307Z,2.10
2018-09-23T13:06:22.978Z,2.00
2018-09-23T13:08:51.773Z,1.60
2018-09-23T13:11:20.270Z,1.43
2018-09-23T13:13:49.766Z,0.83
2018-09-23T13:16:18.227Z,0.73
2018-09-23T13:18:46.853Z,3.13
2018-09-23T13:21:15.450Z,1.27
2018-09-23T13:23:44.013Z,0.83
2018-09-23T13:26:12.767Z,1.00
2018-09-23T13:28:41.280Z,2.23
2018-09-23T13:31:10.184Z,4.20
2018-09-23T13:33:38.854Z,2.20
2018-09-23T13:36:07.519Z,2.10
2018-09-23T13:38:35.991Z,3.23
2018-09-23T13:41:04.482Z,2.73
2018-09-23T13:43:33.270Z,2.93
2018-09-23T13:46:01.839Z,0.20
2018-09-23T13:48:30.894Z,0.43
2018-09-23T13:50:59.470Z,2.30
2018-09-23T13:53:28.620Z,1.17
2018-09-23T13:55:57.196Z,2.60
2018-09-23T13:58:25.870Z,1.37
2018-09-23T14:00:54.359Z,0.20
2018-09-23T14:03:22.839Z,0.97
2018-09-23T14:05:51.817Z,1.73
2018-09-23T14:08:20.308Z,0.13
2018-09-23T14:10:50.568Z,0.70
2018-09-23T14:13:19.058Z,1.00
2018-09-23T14:15:47.735Z,1.43
2018-09-23T14:18:16.286Z,0.93
2018-09-23T14:20:44.794Z,2.00
2018-09-23T14:23:13.262Z,1.80
2018-09-23T14:25:41.786Z,2.57
2018-09-23T14:28:10.453Z,1.07
2018-09-23T14:30:39.245Z,0.60
2018-09-23T14:33:08.076Z,0.77
2018-09-23T14:35:36.773Z,2.27
2018-09-23T14:38:05.372Z,3.57
2018-09-23T14:40:33.898Z,4.07
2018-09-23T14:43:02.419Z,2.13
2018-09-23T14:45:31.109Z,1.93
2018-09-23T14:47:59.622Z,1.00
2018-09-23T14:50:28.422Z,0.77
2018-09-23T14:52:57.055Z,4.33
2018-09-23T14:55:25.907Z,0.93
2018-09-23T14:57:54.428Z,0.87
2018-09-23T15:00:22.949Z,2.83
2018-09-23T15:02:51.590Z,1.63
2018-09-23T15:05:20.279Z,1.40
2018-09-23T15:07:49.131Z,3.47
2018-09-23T15:10:17.595Z,2.30
2018-09-23T15:12:46.229Z,2.27
2018-09-23T15:15:14.817Z,1.20
2018-09-23T15:17:43.430Z,1.27
2018-09-23T15:20:12.978Z,1.90
2018-09-23T15:22:41.522Z,3.97
2018-09-23T15:25:10.154Z,0.90
2018-09-23T15:27:38.757Z,2.77
2018-09-23T15:30:07.542Z,4.23
2018-09-23T15:32:36.040Z,1.17
2018-09-23T15:35:04.714Z,1.50
2018-09-23T15:37:33.229Z,0.50
2018-09-23T15:40:01.831Z,1.13
2018-09-23T15:42:30.627Z,0.73
2018-09-23T15:44:59.244Z,1.70
2018-09-23T15:47:27.966Z,3.13
2018-09-23T15:49:56.506Z,0.67
2018-09-23T15:52:25.332Z,1.77
2018-09-23T15:54:53.877Z,0.83
2018-09-23T15:57:22.534Z,3.83
2018-09-23T15:59:51.014Z,2.80
2018-09-23T16:02:19.523Z,1.60
2018-09-23T16:04:48.420Z,1.20
2018-09-23T16:07:16.902Z,0.60
2018-09-23T16:09:45.805Z,1.57
2018-09-23T16:12:14.414Z,1.00
2018-09-23T16:14:43.060Z,1.17
2018-09-23T16:17:11.532Z,0.20
2018-09-23T16:19:40.055Z,0.27
2018-09-23T16:22:08.662Z,1.23
2018-09-23T16:24:37.118Z,2.00
2018-09-23T16:27:05.917Z,0.30
2018-09-23T16:29:34.462Z,2.47
2018-09-23T16:32:03.286Z,0.80
2018-09-23T16:34:31.738Z,1.70
2018-09-23T16:37:00.406Z,2.33
2018-09-23T16:39:29.254Z,0.50
2018-09-23T16:41:57.882Z,2.27
2018-09-23T16:44:26.871Z,3.17
2018-09-23T16:46:55.340Z,0.43
2018-09-23T16:49:24.375Z,5.40
2018-09-23T16:51:52.847Z,0.97
2018-09-23T16:54:21.433Z,3.73
2018-09-23T16:56:50.046Z,6.07
2018-09-23T16:59:18.507Z,1.10
2018-09-23T17:01:47.406Z,3.67
2018-09-23T17:04:15.990Z,1.60
2018-09-23T17:06:44.974Z,1.10
2018-09-23T17:09:13.438Z,0.40
2018-09-23T17:11:42.204Z,13.45
2018-09-23T17:14:10.714Z,4.63
2018-09-23T17:16:39.308Z,2.40
2018-09-23T17:19:08.108Z,0.97
2018-09-23T17:21:36.650Z,0.80
2018-09-23T17:24:05.682Z,5.20
2018-09-23T17:26:34.382Z,0.73
2018-09-23T17:29:03.146Z,3.30
2018-09-23T17:31:31.879Z,1.70
2018-09-23T17:34:00.460Z,0.63
2018-09-23T17:36:28.957Z,1.60
2018-09-23T17:38:57.442Z,0.87
2018-09-23T17:41:26.493Z,2.13
2018-09-23T17:43:55.022Z,4.77
2018-09-23T17:46:24.960Z,1.17
2018-09-23T17:48:53.511Z,4.63
2018-09-23T17:51:22.417Z,2.83
2018-09-23T17:53:50.902Z,9.10
2018-09-23T17:56:19.597Z,3.83
2018-09-23T17:58:48.352Z,1.00
2018-09-23T18:01:16.935Z,2.73
2018-09-23T18:03:45.678Z,1.47
2018-09-23T18:06:14.203Z,1.10
2018-09-23T18:08:42.906Z,0.93
2018-09-23T18:11:11.639Z,1.50
2018-09-23T18:13:40.278Z,1.40
2018-09-23T18:16:09.097Z,1.53
2018-09-23T18:18:37.655Z,0.73
2018-09-23T18:21:06.995Z,2.33
2018-09-23T18:23:35.512Z,1.57
2018-09-23T18:26:04.527Z,2.30
2018-09-23T18:28:33.095Z,2.30
2018-09-23T18:31:01.990Z,1.53
2018-09-23T18:33:30.615Z,2.73
2018-09-23T18:35:59.196Z,1.73
2018-09-23T18:38:27.728Z,5.00
2018-09-23T18:40:57.019Z,2.90
2018-09-23T18:43:25.530Z,2.30
2018-09-23T18:45:54.058Z,1.07
2018-09-23T18:48:22.750Z,1.43
2018-09-23T18:50:51.359Z,4.60
2018-09-23T18:53:24.204Z,1.23
2018-09-23T18:55:53.790Z,2.00
2018-09-23T18:58:22.461Z,0.93
2018-09-23T19:00:51.138Z,2.63
2018-09-23T19:03:20.035Z,2.80
2018-09-23T19:05:48.503Z,1.10
2018-09-23T19:08:17.178Z,1.77
2018-09-23T19:10:45.670Z,2.43
2018-09-23T19:13:19.519Z,0.80
2018-09-23T19:15:52.458Z,2.37
2018-09-23T19:18:21.034Z,1.27
2018-09-23T19:20:49.785Z,0.73
2018-09-23T19:23:18.315Z,2.57
2018-09-23T19:25:46.980Z,2.57
2018-09-23T19:28:15.666Z,1.83
2018-09-23T19:30:44.165Z,0.60
2018-09-23T19:33:12.815Z,1.60
2018-09-23T19:35:41.414Z,2.37
2018-09-23T19:38:09.934Z,3.27
2018-09-23T19:40:38.568Z,1.63
2018-09-23T19:43:07.040Z,1.23
2018-09-23T19:45:35.702Z,1.67
2018-09-23T19:48:04.300Z,1.90
2018-09-23T19:50:33.212Z,1.60
2018-09-23T19:53:01.663Z,1.37
2018-09-23T19:55:30.239Z,0.93
2018-09-23T19:57:58.729Z,4.30
2018-09-23T20:00:27.211Z,0.60
2018-09-23T20:02:55.762Z,1.00
2018-09-23T20:05:24.306Z,1.33
2018-09-23T20:07:52.970Z,2.90
2018-09-23T20:10:21.761Z,0.30
2018-09-23T20:12:50.593Z,0.40
2018-09-23T20:15:19.457Z,1.17
2018-09-23T20:17:48.661Z,0.20
2018-09-23T20:20:17.141Z,0.53
2018-09-23T20:22:45.591Z,2.77
2018-09-23T20:25:14.363Z,0.30
2018-09-23T20:27:42.822Z,0.70
2018-09-23T20:30:11.758Z,4.83
2018-09-23T20:32:40.237Z,0.63
2018-09-23T20:35:09.046Z,0.87
2018-09-23T20:37:38.574Z,1.30
2018-09-23T20:40:07.431Z,1.00
2018-09-23T20:42:36.020Z,0.97
2018-09-23T20:45:04.860Z,0.73
2018-09-23T20:47:34.515Z,4.77
2018-09-23T20:50:03.098Z,2.77
2018-09-23T20:52:31.988Z,1.07
2018-09-23T20:55:00.619Z,0.87
2018-09-23T20:57:29.406Z,8.43
2018-09-23T20:59:58.978Z,0.93
2018-09-23T21:02:27.859Z,0.77
2018-09-23T21:04:56.342Z,2.90
2018-09-23T21:07:25.058Z,0.20
2018-09-23T21:09:53.773Z,0.20
2018-09-23T21:12:22.240Z,0.20
2018-09-23T21:14:51.082Z,0.17
2018-09-23T21:17:19.634Z,0.13
2018-09-23T21:19:48.335Z,0.43
2018-09-23T21:22:16.931Z,0.20
2018-09-23T21:24:45.579Z,0.10
2018-09-23T21:27:14.202Z,0.20
2018-09-23T21:29:42.678Z,0.20
2018-09-23T21:32:11.566Z,1.90
2018-09-23T21:34:40.258Z,0.40
2018-09-23T21:37:09.119Z,0.83
2018-09-23T21:39:37.632Z,0.20
2018-09-23T21:42:06.302Z,0.67
2018-09-23T21:44:34.794Z,1.33
2018-09-23T21:47:03.354Z,0.17
2018-09-23T21:49:32.076Z,0.60
2018-09-23T21:52:00.650Z,0.33
2018-09-23T21:54:29.529Z,0.30
2018-09-23T21:56:58.113Z,0.37
2018-09-23T21:59:26.851Z,0.50
2018-09-23T22:01:55.458Z,0.20
2018-09-23T22:04:24.054Z,0.43
2018-09-23T22:06:53.165Z,1.80
2018-09-23T22:09:21.807Z,0.40
2018-09-23T22:11:50.434Z,0.30
2018-09-23T22:14:18.938Z,0.20
2018-09-23T22:16:47.826Z,0.20
2018-09-23T22:19:16.383Z,1.53
2018-09-23T22:21:44.992Z,0.87
2018-09-23T22:24:13.650Z,0.73
2018-09-23T22:26:42.150Z,0.30
2018-09-23T22:29:10.811Z,0.30
2018-09-23T22:31:39.334Z,0.43
2018-09-23T22:34:08.290Z,1.40
2018-09-23T22:36:36.734Z,0.20
2018-09-23T22:39:07.164Z,0.20
2018-09-23T22:41:35.638Z,2.00
2018-09-23T22:44:04.222Z,1.27
2018-09-23T22:46:32.805Z,0.30
2018-09-23T22:49:01.334Z,0.20
2018-09-23T22:51:30.111Z,0.30
2018-09-23T22:53:58.677Z,0.37
2018-09-23T22:56:27.537Z,0.40
2018-09-23T22:58:56.167Z,0.27
2018-09-23T23:01:24.902Z,0.30
2018-09-23T23:03:53.422Z,0.50
2018-09-23T23:06:22.103Z,0.70
2018-09-23T23:08:50.610Z,0.20
2018-09-23T23:11:19.288Z,1.97
2018-09-23T23:13:48.073Z,1.37
2018-09-23T23:16:16.595Z,0.30
2018-09-23T23:18:45.446Z,0.30
2018-09-23T23:21:14.130Z,0.37
2018-09-23T23:23:42.764Z,0.40
2018-09-23T23:26:11.216Z,0.27
2018-09-23T23:28:39.667Z,0.50
2018-09-23T23:31:08.586Z,3.27
2018-09-23T23:33:37.146Z,0.30
2018-09-23T23:36:06.042Z,0.40
2018-09-23T23:38:34.548Z,0.40
2018-09-23T23:41:03.117Z,0.40
2018-09-23T23:43:31.719Z,0.20
2018-09-23T23:46:00.282Z,0.20
2018-09-23T23:48:28.997Z,1.00
2018-09-23T23:50:57.462Z,0.27
2018-09-23T23:53:26.391Z,0.23
2018-09-23T23:55:54.846Z,0.30
2018-09-23T23:58:23.640Z,0.60
